Time;durP1;ratioP1;P1;durP2;ratioP2;P2;SDS_P1;SDS_P2;PMS_P1;PMS_P2;Temp;Humidity;BMP_temperature;BMP_pressure;BME280_temperature;BME280_humidity;BME280_pressure;Samples;Min_cycle;Max_cycle;Signal;HPM_P1;HPM_P2
2022/05/08 00:00:14;;;;;;;8.52;5.40;;;;;;;17.07;37.98;101699.25;5121326;27;20449;-51
2022/05/08 00:02:41;;;;;;;8.40;4.88;;;;;;;17.05;37.92;101698.63;5074860;28;20414;-54
2022/05/08 00:05:09;;;;;;;7.90;4.57;;;;;;;17.02;38.10;101699.03;5085790;28;20995;-53
2022/05/08 00:07:36;;;;;;;9.95;4.80;;;;;;;16.98;38.25;101698.56;5086700;28;20447;-53
2022/05/08 00:10:03;;;;;;;6.93;4.68;;;;;;;16.97;38.22;101694.22;5085927;28;20426;-53
2022/05/08 00:12:30;;;;;;;8.07;4.60;;;;;;;16.93;38.34;101704.47;5086838;28;20504;-52
2022/05/08 00:14:57;;;;;;;7.93;4.60;;;;;;;16.90;38.33;101702.19;5085641;28;20422;-49
2022/05/08 00:17:25;;;;;;;9.25;4.63;;;;;;;16.90;38.36;101702.19;5085345;28;20423;-51
2022/05/08 00:19:53;;;;;;;8.55;4.40;;;;;;;16.84;38.47;101694.91;5085347;28;20436;-49
2022/05/08 00:22:20;;;;;;;8.00;4.57;;;;;;;16.82;38.46;101704.94;5086673;28;20418;-51
2022/05/08 00:24:47;;;;;;;7.97;4.57;;;;;;;16.78;38.58;101700.97;5085420;28;20472;-52
2022/05/08 00:27:14;;;;;;;6.87;4.50;;;;;;;16.73;38.47;101703.38;5086644;28;20513;-52
2022/05/08 00:29:41;;;;;;;7.17;4.10;;;;;;;16.69;38.63;101702.94;5086420;28;20528;-50
2022/05/08 00:32:08;;;;;;;8.60;4.00;;;;;;;16.65;38.61;101708.84;5084583;28;20503;-51
2022/05/08 00:34:37;;;;;;;9.02;4.60;;;;;;;16.57;38.73;101702.56;5084866;28;20422;-52
2022/05/08 00:37:05;;;;;;;7.75;4.30;;;;;;;16.55;38.68;101704.59;5084350;28;20418;-52
2022/05/08 00:39:32;;;;;;;7.43;4.38;;;;;;;16.52;38.80;101699.59;5085486;28;20914;-53
2022/05/08 00:41:59;;;;;;;6.28;4.10;;;;;;;16.52;38.74;101706.81;5085037;28;20426;-51
2022/05/08 00:44:26;;;;;;;6.57;4.20;;;;;;;16.48;38.69;101710.88;5085917;28;20424;-52
2022/05/08 00:46:53;;;;;;;6.57;3.90;;;;;;;16.41;38.90;101706.25;5085714;28;20845;-52
2022/05/08 00:50:41;;;;;;;9.30;4.32;;;;;;;16.34;39.02;101708.00;5085661;27;20485;-53
2022/05/08 00:53:08;;;;;;;7.03;4.10;;;;;;;16.34;39.07;101709.84;5086445;28;20799;-52
2022/05/08 00:55:35;;;;;;;6.03;4.05;;;;;;;16.31;39.15;101710.19;5083861;28;20517;-51
2022/05/08 00:58:03;;;;;;;8.20;4.80;;;;;;;16.28;39.17;101706.06;5086479;28;20418;-50
2022/05/08 01:00:30;;;;;;;7.10;4.30;;;;;;;16.24;39.17;101702.94;5083346;28;20480;-50
2022/05/08 01:02:57;;;;;;;8.85;4.22;;;;;;;16.19;39.13;101709.84;5085440;28;20484;-52
2022/05/08 01:05:25;;;;;;;8.45;4.43;;;;;;;16.17;39.31;101709.16;5083971;28;20430;-50
2022/05/08 01:07:53;;;;;;;8.77;4.60;;;;;;;16.15;39.49;101705.84;5086273;28;20424;-53
2022/05/08 01:10:20;;;;;;;8.43;4.70;;;;;;;16.13;39.69;101715.91;5086200;28;20523;-49
2022/05/08 01:12:47;;;;;;;7.25;4.70;;;;;;;16.09;39.63;101710.09;5086320;28;20800;-54
2022/05/08 01:17:17;;;;;;;7.70;4.38;;;;;;;16.08;39.79;101708.44;5087056;27;20410;-53
2022/05/08 01:19:44;;;;;;;8.40;4.45;;;;;;;16.07;40.14;101706.78;5081801;28;20449;-51
2022/05/08 01:22:12;;;;;;;7.55;4.70;;;;;;;16.04;40.04;101707.97;5085134;28;20449;-50
2022/05/08 01:24:39;;;;;;;7.28;4.32;;;;;;;16.02;40.14;101706.47;5085649;28;20414;-50
2022/05/08 01:27:06;;;;;;;9.75;4.80;;;;;;;16.01;39.94;101712.84;5086710;28;20425;-52
2022/05/08 01:29:33;;;;;;;7.95;4.35;;;;;;;15.97;40.19;101709.72;5086733;28;20501;-51
2022/05/08 01:32:01;;;;;;;9.25;4.20;;;;;;;15.98;40.15;101713.22;5084564;28;20422;-51
2022/05/08 01:34:28;;;;;;;6.80;4.30;;;;;;;15.95;40.11;101713.56;5085378;28;20499;-52
2022/05/08 01:36:55;;;;;;;6.90;4.32;;;;;;;15.92;40.00;101713.91;5086193;28;20946;-50
2022/05/08 01:39:23;;;;;;;6.70;4.25;;;;;;;15.92;40.26;101719.25;5086565;28;20418;-53
2022/05/08 01:41:50;;;;;;;6.33;4.43;;;;;;;15.90;40.35;101711.44;5084495;28;20444;-50
2022/05/08 01:44:17;;;;;;;7.05;4.80;;;;;;;15.88;40.07;101723.31;5086449;28;20458;-51
2022/05/08 01:46:44;;;;;;;6.22;4.50;;;;;;;15.82;40.37;101715.00;5084863;28;20511;-52
2022/05/08 01:49:10;;;;;;;6.78;4.50;;;;;;;15.79;40.35;101718.06;5082994;28;20808;-51
2022/05/08 01:51:37;;;;;;;8.13;4.80;;;;;;;15.76;40.17;101721.09;5083400;28;20499;-50
2022/05/08 01:54:05;;;;;;;6.03;4.30;;;;;;;15.71;40.26;101726.09;5082476;28;20475;-53
2022/05/08 01:56:34;;;;;;;7.13;4.47;;;;;;;15.67;40.23;101730.97;5084810;28;20451;-55
2022/05/08 01:59:01;;;;;;;9.60;4.60;;;;;;;15.61;40.34;101718.34;5084395;28;20410;-53
2022/05/08 02:01:29;;;;;;;7.77;4.67;;;;;;;15.59;40.43;101722.19;5086195;28;20514;-51
2022/05/08 02:03:56;;;;;;;6.68;4.57;;;;;;;15.55;40.23;101720.88;5082831;28;20418;-53
2022/05/08 02:06:23;;;;;;;7.65;4.55;;;;;;;15.48;40.49;101721.59;5084172;28;20943;-49
2022/05/08 02:08:52;;;;;;;8.85;4.80;;;;;;;15.46;40.59;101725.44;5086101;28;20445;-53
2022/05/08 02:11:19;;;;;;;6.75;4.20;;;;;;;15.39;40.39;101730.66;5083303;28;20868;-50
2022/05/08 02:13:47;;;;;;;7.05;4.40;;;;;;;15.36;40.75;101723.00;5085583;28;20428;-50
2022/05/08 02:16:14;;;;;;;9.15;4.70;;;;;;;15.35;40.54;101732.03;5083701;28;20469;-56
2022/05/08 02:20:09;;;;;;;7.00;4.20;;;;;;;15.32;40.46;101736.88;5103984;27;20970;-50
2022/05/08 02:22:37;;;;;;;7.63;4.53;;;;;;;15.25;40.88;101734.94;5106911;28;20420;-52
2022/05/08 02:27:00;;;;;;;7.03;4.50;;;;;;;15.21;41.04;101738.13;5115747;27;20820;-50
2022/05/08 02:29:27;;;;;;;9.45;4.45;;;;;;;15.16;41.21;101741.34;5094001;28;20840;-48
2022/05/08 02:31:53;;;;;;;7.90;4.43;;;;;;;15.14;41.27;101740.66;5098382;28;20416;-49
2022/05/08 02:34:20;;;;;;;7.85;4.55;;;;;;;15.13;41.33;101739.00;5085123;28;20406;-48
2022/05/08 02:36:48;;;;;;;7.63;4.68;;;;;;;15.10;41.78;101742.84;5095547;28;20520;-48
2022/05/08 02:39:14;;;;;;;8.50;4.43;;;;;;;15.03;42.24;101733.03;5091371;28;20942;-48
2022/05/08 02:41:41;;;;;;;7.38;4.80;;;;;;;15.12;42.20;101744.50;5086728;28;20448;-52
2022/05/08 02:44:10;;;;;;;8.75;4.78;;;;;;;15.08;42.33;101744.03;5093044;28;20452;-52
2022/05/08 02:46:37;;;;;;;10.18;4.70;;;;;;;15.08;42.19;101744.84;5093628;28;20434;-49
2022/05/08 02:49:04;;;;;;;8.18;4.50;;;;;;;15.09;42.58;101743.84;5086671;28;20418;-48
2022/05/08 02:51:31;;;;;;;7.78;4.60;;;;;;;15.04;42.76;101756.91;5096379;28;20455;-50
2022/05/08 02:53:58;;;;;;;7.60;4.50;;;;;;;15.08;42.81;101746.69;5104013;28;20465;-49
2022/05/08 02:59:11;;;;;;;7.95;4.70;;;;;;;15.12;42.73;101756.03;5086241;28;20792;-48
2022/05/08 03:01:38;;;;;;;7.90;4.88;;;;;;;15.10;42.72;101760.72;5091169;28;20412;-48
2022/05/08 03:04:05;;;;;;;9.48;4.93;;;;;;;15.08;42.52;101762.72;5088132;28;20911;-52
2022/05/08 03:06:32;;;;;;;8.07;4.93;;;;;;;15.07;42.54;101761.91;5095209;28;20951;-49
2022/05/08 03:08:59;;;;;;;9.90;5.07;;;;;;;15.03;42.48;101759.72;5085938;28;20501;-49
2022/05/08 03:11:26;;;;;;;6.97;5.05;;;;;;;14.89;42.96;101761.28;5093130;28;20444;-50
2022/05/08 03:13:54;;;;;;;11.25;5.20;;;;;;;14.86;42.92;101764.31;5088096;28;20454;-48
2022/05/08 03:16:23;;;;;;;8.25;4.75;;;;;;;14.87;42.99;101764.16;5090956;28;20903;-51
2022/05/08 03:18:51;;;;;;;7.35;4.63;;;;;;;14.72;43.55;101765.84;5085838;28;20988;-51
2022/05/08 03:21:18;;;;;;;10.77;4.57;;;;;;;14.72;43.56;101769.34;5084534;28;20418;-50
2022/05/08 03:23:46;;;;;;;7.65;4.63;;;;;;;14.94;43.03;101766.13;5087806;28;20466;-48
2022/05/08 03:26:14;;;;;;;8.27;5.10;;;;;;;14.76;43.51;101764.50;5093011;28;20472;-49
2022/05/08 03:28:42;;;;;;;8.90;4.43;;;;;;;14.84;43.20;101769.00;5085862;28;20429;-51
2022/05/08 03:31:10;;;;;;;7.97;4.75;;;;;;;14.78;43.34;101773.16;5090532;28;20940;-49
2022/05/08 03:33:39;;;;;;;7.45;4.50;;;;;;;14.90;43.21;101776.31;5092360;28;20454;-49
2022/05/08 03:36:07;;;;;;;10.20;5.00;;;;;;;14.95;43.43;101773.13;5085228;28;20420;-50
2022/05/08 03:38:35;;;;;;;8.68;4.50;;;;;;;14.96;43.06;101772.13;5071443;28;20958;-55
2022/05/08 03:41:02;;;;;;;12.35;4.97;;;;;;;15.04;42.90;101783.59;5071452;28;20419;-52
2022/05/08 03:43:29;;;;;;;22.25;5.28;;;;;;;15.01;43.31;101785.78;5075998;28;20945;-51
2022/05/08 03:45:57;;;;;;;10.25;5.03;;;;;;;15.02;42.89;101790.97;5081239;28;20429;-53
2022/05/08 03:48:24;;;;;;;11.07;5.20;;;;;;;15.04;42.92;101788.13;5071946;28;20414;-54
2022/05/08 03:50:53;;;;;;;12.60;4.75;;;;;;;15.05;43.31;101787.09;5071900;28;20451;-53
2022/05/08 03:53:20;;;;;;;7.95;4.90;;;;;;;15.05;43.41;101795.97;5077952;28;20422;-52
2022/05/08 03:55:47;;;;;;;7.05;5.00;;;;;;;15.07;43.08;101785.06;5070474;28;20467;-48
2022/05/08 03:58:14;;;;;;;7.95;5.10;;;;;;;15.15;43.16;101794.91;5071711;28;20503;-50
2022/05/08 04:00:41;;;;;;;8.05;4.72;;;;;;;15.25;42.79;101793.69;5070823;28;20510;-50
2022/05/08 04:03:08;;;;;;;10.73;4.88;;;;;;;15.36;42.49;101803.16;5085136;28;20975;-50
2022/05/08 04:05:35;;;;;;;7.63;4.75;;;;;;;15.48;42.53;101800.91;5078414;28;20441;-54
2022/05/08 04:08:03;;;;;;;8.10;4.68;;;;;;;15.62;42.25;101804.69;5074964;28;20549;-48
2022/05/08 04:10:30;;;;;;;8.50;5.00;;;;;;;15.84;41.88;101793.19;5079507;28;20447;-52
2022/05/08 04:12:57;;;;;;;8.80;4.88;;;;;;;16.13;41.14;101801.50;5071221;28;20912;-49
2022/05/08 04:18:09;;;;;;;8.02;4.80;;;;;;;16.75;39.75;101801.25;5068271;28;20456;-52
2022/05/08 04:20:36;;;;;;;7.32;4.80;;;;;;;16.99;39.23;101808.19;5071023;28;20510;-51
2022/05/08 04:25:51;;;;;;;8.67;4.60;;;;;;;17.68;37.91;101811.47;5069461;28;20484;-54
2022/05/08 04:28:19;;;;;;;9.30;4.53;;;;;;;18.03;36.93;101806.28;5070068;28;20757;-51
2022/05/08 04:30:47;;;;;;;7.88;4.47;;;;;;;18.22;36.28;101811.00;5072134;28;21479;-54
2022/05/08 04:33:14;;;;;;;9.77;4.60;;;;;;;18.46;35.79;101809.72;5079780;28;20423;-53
2022/05/08 04:35:41;;;;;;;9.05;4.90;;;;;;;18.78;35.29;101814.69;5073264;28;20423;-52
2022/05/08 04:38:11;;;;;;;7.60;4.90;;;;;;;19.07;34.69;101816.34;5075908;28;20486;-54
2022/05/08 04:40:39;;;;;;;9.65;4.55;;;;;;;19.39;34.18;101819.34;5069678;28;20797;-51
2022/05/08 04:43:06;;;;;;;9.95;4.47;;;;;;;19.62;33.89;101822.53;5071013;28;20418;-54
2022/05/08 04:45:33;;;;;;;7.57;4.50;;;;;;;19.85;33.54;101819.50;5069117;28;20516;-53
2022/05/08 04:48:00;;;;;;;9.68;5.30;;;;;;;20.15;32.99;101818.28;5075333;28;20421;-57
2022/05/08 04:50:27;;;;;;;9.73;5.05;;;;;;;20.44;32.65;101817.88;5073854;28;20462;-54
2022/05/08 04:52:54;;;;;;;10.15;4.93;;;;;;;20.69;32.28;101816.41;5070724;28;20430;-49
2022/05/08 04:55:23;;;;;;;8.45;4.55;;;;;;;21.03;31.71;101812.59;5076721;28;20429;-55
2022/05/08 05:00:12;;;;;;;6.80;4.57;;;;;;;21.54;30.86;101822.56;5105693;27;20453;-55
2022/05/08 05:02:39;;;;;;;7.22;4.20;;;;;;;21.71;30.63;101816.63;5104866;28;20418;-56
2022/05/08 05:05:07;;;;;;;8.38;4.57;;;;;;;21.92;30.22;101813.59;5105739;28;20862;-53
2022/05/08 05:07:34;;;;;;;8.10;4.50;;;;;;;22.25;29.99;101814.38;5105685;28;20434;-53
2022/05/08 05:10:02;;;;;;;6.00;4.20;;;;;;;22.37;29.60;101822.63;5106563;28;20420;-55
2022/05/08 05:12:29;;;;;;;7.90;4.20;;;;;;;22.61;29.25;101815.53;5104170;28;20497;-56
2022/05/08 05:14:56;;;;;;;7.55;4.45;;;;;;;22.54;29.35;101826.38;5103594;28;22550;-52
2022/05/08 05:17:25;;;;;;;6.10;4.05;;;;;;;22.87;28.80;101830.66;5103730;28;20775;-53
2022/05/08 05:19:52;;;;;;;7.32;4.00;;;;;;;22.88;28.81;101835.81;5103035;28;20428;-54
2022/05/08 05:22:22;;;;;;;8.20;4.07;;;;;;;23.20;28.54;101824.06;5104349;28;20422;-57
2022/05/08 05:24:49;;;;;;;6.95;4.10;;;;;;;23.34;28.54;101828.25;5097523;28;21389;-56
2022/05/08 05:27:16;;;;;;;7.80;4.07;;;;;;;23.51;28.38;101833.81;5098901;28;20425;-53
2022/05/08 05:29:43;;;;;;;9.25;4.13;;;;;;;23.59;28.45;101832.69;5106975;28;20416;-54
2022/05/08 05:32:10;;;;;;;5.75;3.67;;;;;;;23.79;27.58;101827.00;5103423;28;20965;-54
2022/05/08 05:34:39;;;;;;;6.05;3.78;;;;;;;24.23;26.99;101838.41;5108734;28;20983;-55
2022/05/08 05:37:06;;;;;;;7.90;3.72;;;;;;;24.41;26.97;101834.75;5100851;28;20449;-53
2022/05/08 05:39:33;;;;;;;6.13;3.80;;;;;;;24.71;26.80;101833.84;5098606;28;20953;-54
2022/05/08 05:42:00;;;;;;;6.72;4.00;;;;;;;24.94;26.15;101833.00;5097960;28;20863;-52
2022/05/08 05:44:27;;;;;;;6.50;3.30;;;;;;;24.94;26.09;101831.09;5097680;28;20425;-51
2022/05/08 05:49:40;;;;;;;7.65;3.50;;;;;;;25.09;25.81;101833.28;5104810;28;20528;-54
2022/05/08 05:52:08;;;;;;;5.20;3.40;;;;;;;25.39;25.12;101824.16;5094111;28;20457;-55
2022/05/08 05:54:35;;;;;;;7.15;3.60;;;;;;;25.55;24.92;101825.25;5088751;28;20514;-53
2022/05/08 05:57:02;;;;;;;7.22;3.58;;;;;;;25.80;24.73;101822.16;5098236;28;20433;-54
2022/05/08 05:59:30;;;;;;;6.93;3.50;;;;;;;25.75;24.38;101817.47;5091692;28;20430;-53
2022/05/08 06:01:57;;;;;;;5.40;3.70;;;;;;;26.15;24.14;101823.06;5090232;28;20414;-55
2022/05/08 06:04:24;;;;;;;4.85;3.20;;;;;;;26.06;24.43;101825.34;5091984;28;20502;-54
2022/05/08 06:06:53;;;;;;;5.40;3.13;;;;;;;26.55;23.57;101822.81;5096944;28;20467;-56
2022/05/08 06:09:20;;;;;;;5.18;3.10;;;;;;;26.64;23.42;101818.63;5091630;28;20448;-55
2022/05/08 06:11:47;;;;;;;6.10;3.10;;;;;;;26.88;23.04;101827.41;5079963;28;20421;-55
2022/05/08 06:14:14;;;;;;;4.85;3.10;;;;;;;26.60;23.39;101814.75;5082504;28;20447;-56
2022/05/08 06:16:42;;;;;;;4.80;3.20;;;;;;;27.04;23.32;101820.22;5081696;28;20476;-54
2022/05/08 06:19:09;;;;;;;5.93;3.17;;;;;;;27.39;22.78;101819.03;5082136;28;20895;-56
2022/05/08 06:21:36;;;;;;;4.82;3.20;;;;;;;27.22;23.17;101818.25;5079089;28;20924;-58
2022/05/08 06:24:05;;;;;;;4.67;2.90;;;;;;;27.30;22.66;101811.56;5081614;28;20439;-51
2022/05/08 06:26:32;;;;;;;5.93;3.13;;;;;;;27.11;22.69;101819.22;5078321;28;20411;-57
2022/05/08 06:28:59;;;;;;;4.72;3.10;;;;;;;27.69;22.36;101808.69;5085115;28;20871;-52
2022/05/08 06:31:27;;;;;;;5.05;3.00;;;;;;;27.68;22.11;101812.47;5087626;28;20478;-56
2022/05/08 06:33:54;;;;;;;4.80;3.00;;;;;;;27.73;21.65;101807.94;5080638;28;20423;-55
2022/05/08 06:36:22;;;;;;;6.53;3.07;;;;;;;27.84;21.93;101808.84;5077548;28;20428;-58
2022/05/08 06:38:49;;;;;;;5.70;3.37;;;;;;;28.20;21.68;101809.94;5080817;28;20425;-55
2022/05/08 06:41:17;;;;;;;5.93;2.88;;;;;;;28.44;21.04;101808.75;5075169;28;20445;-55
2022/05/08 06:45:10;;;;;;;7.32;2.83;;;;;;;28.29;21.21;101809.44;5103773;27;20409;-53
2022/05/08 06:47:37;;;;;;;5.38;2.78;;;;;;;28.09;21.25;101810.97;5085137;28;20438;-57
2022/05/08 06:50:04;;;;;;;5.53;2.90;;;;;;;27.61;21.50;101808.06;5084638;28;20454;-59
2022/05/08 06:52:31;;;;;;;4.97;2.80;;;;;;;27.65;21.57;101808.38;5084137;28;20787;-54
2022/05/08 06:54:58;;;;;;;3.80;2.70;;;;;;;27.36;21.44;101816.00;5085135;28;20424;-49
2022/05/08 06:57:25;;;;;;;4.63;3.00;;;;;;;26.93;22.65;101821.19;5085499;28;20473;-54
2022/05/08 07:02:43;;;;;;;3.88;2.78;;;;;;;25.83;22.53;101824.41;5084619;28;20409;-54
2022/05/08 07:05:10;;;;;;;5.60;2.70;;;;;;;25.57;23.18;101823.13;5084767;28;20491;-54
2022/05/08 07:07:37;;;;;;;4.60;2.90;;;;;;;25.22;23.79;101823.25;5084589;28;20419;-54
2022/05/08 07:10:04;;;;;;;4.10;2.60;;;;;;;24.69;24.55;101834.09;5083799;28;20418;-56
2022/05/08 07:12:31;;;;;;;4.55;2.92;;;;;;;24.34;25.20;101834.06;5083773;28;20440;-57
2022/05/08 07:14:59;;;;;;;4.18;2.72;;;;;;;24.11;25.09;101834.84;5081602;28;20885;-68
2022/05/08 07:17:28;;;;;;;6.00;2.70;;;;;;;23.76;25.81;101833.69;5080984;28;20420;-55
2022/05/08 07:19:56;;;;;;;4.88;2.70;;;;;;;23.32;25.86;101840.31;5084128;28;20418;-51
2022/05/08 07:22:23;;;;;;;3.53;2.50;;;;;;;22.72;26.34;101839.09;5085847;28;20934;-53
2022/05/08 07:24:50;;;;;;;4.82;2.58;;;;;;;22.51;26.69;101841.19;5085366;28;20425;-53
2022/05/08 07:27:17;;;;;;;5.30;2.60;;;;;;;22.23;27.50;101840.78;5080673;28;20429;-51
2022/05/08 07:29:45;;;;;;;5.30;2.70;;;;;;;21.95;27.93;101844.75;5085233;28;20916;-53
2022/05/08 07:32:12;;;;;;;5.15;2.80;;;;;;;21.90;27.90;101842.69;5084916;28;20479;-53
2022/05/08 07:37:25;;;;;;;5.15;2.90;;;;;;;21.57;28.57;101834.78;5083604;28;20574;-55
2022/05/08 07:39:52;;;;;;;5.97;2.65;;;;;;;21.55;28.89;101839.56;5083242;28;20422;-53
2022/05/08 07:42:19;;;;;;;6.38;2.65;;;;;;;21.56;29.19;101833.94;5082981;28;21174;-54
2022/05/08 07:44:46;;;;;;;5.40;2.92;;;;;;;21.56;29.21;101841.22;5082062;28;20517;-57
2022/05/08 07:47:14;;;;;;;4.80;2.70;;;;;;;21.44;28.84;101838.34;5083123;28;20427;-56
2022/05/08 07:49:41;;;;;;;4.97;2.70;;;;;;;21.28;29.00;101828.03;5083180;28;20998;-56
2022/05/08 07:52:08;;;;;;;6.13;2.90;;;;;;;21.32;29.63;101829.25;5081981;28;20865;-59
2022/05/08 07:54:36;;;;;;;5.10;3.00;;;;;;;21.35;28.61;101824.25;5081436;28;20423;-53
2022/05/08 07:57:04;;;;;;;4.90;2.70;;;;;;;21.34;28.96;101832.59;5070657;28;20431;-55
2022/05/08 07:59:31;;;;;;;4.60;2.55;;;;;;;21.23;28.94;101828.69;5070048;28;20454;-53
2022/05/08 08:01:58;;;;;;;4.70;2.83;;;;;;;21.54;29.17;101841.44;5066608;28;20423;-55
2022/05/08 08:04:26;;;;;;;7.65;2.60;;;;;;;21.69;28.65;101840.31;5069444;28;20458;-54
2022/05/08 08:06:53;;;;;;;6.13;3.08;;;;;;;21.62;28.00;101834.94;5069834;28;20407;-54
2022/05/08 08:09:21;;;;;;;4.30;3.05;;;;;;;21.80;28.19;101846.91;5067357;28;20423;-53
2022/05/08 08:11:49;;;;;;;5.03;2.75;;;;;;;21.58;27.89;101841.84;5067858;28;20497;-56
2022/05/08 08:14:17;;;;;;;5.72;2.80;;;;;;;21.48;27.84;101849.56;5066831;28;20882;-54
2022/05/08 08:16:44;;;;;;;3.60;2.60;;;;;;;21.46;28.12;101841.66;5043316;28;20416;-55
2022/05/08 08:19:12;;;;;;;3.97;2.50;;;;;;;21.60;27.96;101844.31;5069214;28;20403;-54
2022/05/08 08:21:39;;;;;;;6.30;2.92;;;;;;;21.50;28.14;101842.06;5069300;28;20415;-54
2022/05/08 08:24:07;;;;;;;6.28;2.92;;;;;;;21.49;28.18;101841.25;5072652;28;20435;-53
2022/05/08 08:26:36;;;;;;;5.40;2.80;;;;;;;21.27;27.86;101839.88;5070298;28;20399;-53
2022/05/08 08:29:04;;;;;;;4.65;2.65;;;;;;;21.24;27.82;101843.00;5071099;28;20857;-54
2022/05/08 08:31:31;;;;;;;7.38;2.80;;;;;;;21.20;27.22;101848.00;5071840;28;20417;-56
2022/05/08 08:33:59;;;;;;;5.35;2.70;;;;;;;21.09;26.92;101832.47;5071829;28;20464;-53
2022/05/08 08:36:26;;;;;;;5.10;2.60;;;;;;;21.04;27.49;101830.41;5071214;28;20449;-54
2022/05/08 08:38:54;;;;;;;5.60;2.85;;;;;;;21.16;26.69;101830.59;5070879;28;20943;-54
2022/05/08 08:41:53;;;;;;;3.85;2.67;;;;;;;21.18;26.97;101829.31;5110159;27;21733;-54
2022/05/08 08:50:03;;;;;;;6.20;2.83;;;;;;;21.21;26.63;101825.34;5104813;28;20440;-54
2022/05/08 08:52:30;;;;;;;5.95;2.60;;;;;;;21.38;26.34;101818.44;5114385;28;20406;-54
2022/05/08 08:54:57;;;;;;;5.10;2.67;;;;;;;21.26;26.94;101813.94;5119412;27;20415;-54
2022/05/08 08:57:25;;;;;;;4.57;2.92;;;;;;;21.39;26.92;101813.88;5112383;28;20452;-55
2022/05/08 08:59:52;;;;;;;5.00;2.92;;;;;;;21.56;26.81;101812.38;5106655;28;20459;-54
2022/05/08 09:02:21;;;;;;;6.53;3.03;;;;;;;21.82;26.73;101813.22;5105643;28;20426;-55
2022/05/08 09:04:49;;;;;;;6.60;2.90;;;;;;;21.88;26.89;101816.97;5108926;28;20424;-54
2022/05/08 09:07:41;;;;;;;4.82;2.80;;;;;;;21.63;27.38;101812.34;5107077;28;20413;-54
2022/05/08 09:10:10;;;;;;;4.22;2.50;;;;;;;21.88;26.25;101814.25;5107018;28;20492;-53
2022/05/08 09:12:40;;;;;;;4.68;2.83;;;;;;;21.74;26.65;101806.22;5106765;28;20930;-55
2022/05/08 09:15:18;;;;;;;4.90;2.63;;;;;;;21.91;26.67;101811.09;5106491;28;20462;-54
2022/05/08 09:17:46;;;;;;;5.68;2.88;;;;;;;21.87;26.64;101802.63;5106711;28;20501;-54
2022/05/08 09:20:36;;;;;;;4.55;2.67;;;;;;;21.87;27.05;101802.63;5106801;28;20429;-55
2022/05/08 09:23:14;;;;;;;6.03;2.85;;;;;;;21.76;26.93;101798.75;5109261;28;20771;-55
2022/05/08 09:25:53;;;;;;;5.03;2.70;;;;;;;21.82;27.38;101804.31;5127050;27;20490;-54
2022/05/08 09:28:22;;;;;;;5.38;2.80;;;;;;;21.79;26.46;101802.03;5106135;27;20829;-54
2022/05/08 09:31:04;;;;;;;5.57;2.80;;;;;;;21.91;26.58;101792.22;5105044;28;20413;-54
2022/05/08 09:33:33;;;;;;;4.70;2.87;;;;;;;21.89;26.49;101791.59;5100529;28;20785;-55
2022/05/08 09:36:02;;;;;;;5.38;2.65;;;;;;;21.84;26.75;101786.03;5106656;28;20440;-55
2022/05/08 09:38:53;;;;;;;4.35;2.70;;;;;;;21.83;26.21;101792.50;5106323;28;20423;-55
2022/05/08 09:41:22;;;;;;;5.65;2.65;;;;;;;21.61;26.75;101782.06;5105264;28;20464;-56
2022/05/08 09:43:52;;;;;;;6.57;2.80;;;;;;;21.66;27.45;101781.38;5105110;28;20420;-55
2022/05/08 09:46:20;;;;;;;4.47;2.85;;;;;;;21.83;26.44;101777.13;5104877;28;20863;-55
2022/05/08 09:48:47;;;;;;;4.53;2.55;;;;;;;21.89;26.80;101765.44;5096837;28;20425;-56
2022/05/08 09:51:16;;;;;;;5.68;2.63;;;;;;;21.93;26.87;101765.81;5087953;28;20415;-54
2022/05/08 09:53:44;;;;;;;7.35;2.80;;;;;;;22.00;26.94;101763.06;5078268;28;20426;-55
2022/05/08 09:56:12;;;;;;;6.57;2.70;;;;;;;21.86;26.95;101771.28;5080162;28;20883;-54
2022/05/08 09:58:41;;;;;;;5.65;2.60;;;;;;;21.75;26.24;101756.63;5082369;28;20420;-55
2022/05/08 10:01:09;;;;;;;4.18;2.55;;;;;;;21.92;25.38;101769.56;5075922;28;20924;-55
2022/05/08 10:03:37;;;;;;;3.78;2.40;;;;;;;21.77;22.97;101754.53;5079007;28;20525;-55
2022/05/08 10:06:04;;;;;;;4.53;2.38;;;;;;;21.88;23.11;101752.19;5083805;28;20421;-57
2022/05/08 10:08:36;;;;;;;5.60;2.55;;;;;;;21.86;22.12;101754.25;5076364;28;20415;-54
2022/05/08 10:14:05;;;;;;;4.90;2.50;;;;;;;21.87;22.20;101739.72;5081242;28;20403;-54
2022/05/08 10:17:06;;;;;;;5.82;2.45;;;;;;;21.87;20.97;101751.31;5087664;28;20500;-54
2022/05/08 10:19:46;;;;;;;5.10;2.30;;;;;;;22.09;21.28;101734.75;5083072;28;20472;-54
2022/05/08 10:22:14;;;;;;;6.57;2.35;;;;;;;22.10;21.36;101725.59;5072183;28;20423;-52
2022/05/08 10:24:47;;;;;;;3.30;2.50;;;;;;;21.89;20.98;101730.34;5079327;28;20419;-54
2022/05/08 10:27:16;;;;;;;4.35;2.30;;;;;;;22.00;20.80;101734.19;5074945;28;20423;-54
2022/05/08 10:29:44;;;;;;;4.00;2.35;;;;;;;22.11;20.79;101732.63;5080837;28;20421;-53
2022/05/08 10:32:14;;;;;;;4.88;2.40;;;;;;;22.09;20.33;101730.19;5084029;28;20427;-54
2022/05/08 10:34:43;;;;;;;4.22;2.38;;;;;;;22.23;19.54;101714.66;5080169;28;20420;-54
2022/05/08 10:37:29;;;;;;;6.13;2.40;;;;;;;22.16;19.72;101727.41;5080965;28;20801;-55
2022/05/08 10:39:56;;;;;;;4.00;2.10;;;;;;;22.29;18.79;101704.84;5081484;28;20567;-55
2022/05/08 10:42:46;;;;;;;5.85;2.40;;;;;;;22.26;18.30;101710.69;5083404;28;20456;-56
2022/05/08 10:45:40;;;;;;;4.93;2.00;;;;;;;22.48;17.56;101703.81;5079981;28;20411;-55
2022/05/08 10:48:12;;;;;;;4.47;2.28;;;;;;;22.39;17.41;101697.06;5065946;28;20919;-55
2022/05/08 10:50:41;;;;;;;4.93;2.40;;;;;;;22.42;18.72;101696.63;5017846;27;21631;-50
2022/05/08 10:53:20;;;;;;;5.60;2.20;;;;;;;22.33;18.50;101692.56;4900813;28;20419;-52
2022/05/08 10:55:46;;;;;;;3.17;2.20;;;;;;;22.35;18.29;101698.56;5000207;28;20456;-50
2022/05/08 10:58:13;;;;;;;4.18;2.17;;;;;;;22.23;18.35;101694.94;5078927;28;20431;-52
2022/05/08 11:00:40;;;;;;;2.90;2.20;;;;;;;22.52;17.87;101693.38;5071977;28;20535;-53
2022/05/08 11:03:07;;;;;;;3.92;2.30;;;;;;;22.59;18.17;101691.44;5076328;28;20558;-55
2022/05/08 11:05:38;;;;;;;5.30;2.30;;;;;;;22.43;17.95;101695.56;5077492;28;20938;-54
2022/05/08 11:08:07;;;;;;;3.13;2.30;;;;;;;22.62;18.20;101682.88;5077997;28;20908;-57
2022/05/08 11:10:36;;;;;;;5.00;2.28;;;;;;;22.61;17.65;101677.69;5073631;28;20427;-54
2022/05/08 11:13:05;;;;;;;5.20;2.65;;;;;;;22.60;18.37;101676.03;5083165;28;20438;-54
2022/05/08 11:15:34;;;;;;;4.15;2.30;;;;;;;22.54;17.98;101675.06;5081122;28;20433;-55
2022/05/08 11:18:07;;;;;;;5.07;2.40;;;;;;;22.76;18.29;101667.31;5072509;28;20461;-55
2022/05/08 11:20:39;;;;;;;5.20;2.10;;;;;;;22.80;18.28;101676.63;5082423;28;20444;-55
2022/05/08 11:23:07;;;;;;;5.95;2.20;;;;;;;22.59;17.17;101675.22;5087290;28;21494;-56
2022/05/08 11:25:34;;;;;;;4.68;2.17;;;;;;;22.40;16.61;101657.38;5077241;28;20482;-54
2022/05/08 11:28:01;;;;;;;5.53;2.28;;;;;;;22.58;16.71;101659.22;5074541;28;20556;-55
2022/05/08 11:30:31;;;;;;;4.37;2.20;;;;;;;22.81;17.06;101656.63;5078790;28;20487;-52
2022/05/08 11:36:07;;;;;;;4.15;2.20;;;;;;;22.88;16.42;101654.66;5077542;28;20422;-53
2022/05/08 11:38:44;;;;;;;4.28;2.40;;;;;;;22.84;16.67;101650.78;5075262;28;20504;-53
2022/05/08 11:41:12;;;;;;;4.88;2.13;;;;;;;22.99;17.30;101660.34;5078487;28;20429;-54
2022/05/08 11:43:40;;;;;;;3.47;1.80;;;;;;;22.89;15.93;101645.50;5079679;28;20447;-53
2022/05/08 11:46:08;;;;;;;4.00;1.92;;;;;;;22.88;16.64;101654.66;5084358;28;20475;-52
2022/05/08 11:48:40;;;;;;;2.92;1.98;;;;;;;22.83;15.45;101643.75;5084105;28;20425;-54
2022/05/08 11:51:09;;;;;;;4.28;2.03;;;;;;;22.86;16.20;101640.56;5077627;28;20474;-55
2022/05/08 11:53:45;;;;;;;3.65;1.90;;;;;;;22.77;14.96;101639.22;5084029;28;20420;-54
2022/05/08 11:56:26;;;;;;;2.78;2.00;;;;;;;22.79;15.71;101637.13;5073427;28;21292;-54
2022/05/08 11:58:54;;;;;;;2.87;2.03;;;;;;;22.88;16.31;101633.03;5074604;28;20808;-54
2022/05/08 12:01:29;;;;;;;4.20;2.33;;;;;;;22.75;15.66;101629.72;5083280;28;20470;-53
2022/05/08 12:03:57;;;;;;;4.50;2.25;;;;;;;22.71;15.85;101638.28;5084369;28;20429;-54
2022/05/08 12:06:26;;;;;;;2.87;2.17;;;;;;;22.83;16.40;101623.97;5075823;28;20448;-54
2022/05/08 12:08:53;;;;;;;2.90;2.00;;;;;;;23.08;16.06;101619.28;5080040;28;20411;-56